createdAt,value
2023-09-15T00:00:02.135Z,5.53
2023-09-15T00:02:29.287Z,5.10
2023-09-15T00:04:57.902Z,5.47
2023-09-15T00:07:25.191Z,5.13
2023-09-15T00:09:52.357Z,5.65
2023-09-15T00:12:19.492Z,5.22
2023-09-15T00:14:46.662Z,5.13
2023-09-15T00:17:13.799Z,5.25
2023-09-15T00:19:40.953Z,5.22
2023-09-15T00:22:09.557Z,5.10
2023-09-15T00:24:36.726Z,5.13
2023-09-15T00:27:04.179Z,5.03
2023-09-15T00:29:31.397Z,4.65
2023-09-15T00:31:58.593Z,5.05
2023-09-15T00:34:25.999Z,5.20
2023-09-15T00:36:53.178Z,4.75
2023-09-15T00:39:22.049Z,4.88
2023-09-15T00:41:49.275Z,4.93
2023-09-15T00:44:16.401Z,5.63
2023-09-15T00:46:43.723Z,5.45
2023-09-15T00:49:11.063Z,5.75
2023-09-15T00:51:38.344Z,5.00
2023-09-15T00:54:05.769Z,4.68
2023-09-15T00:56:34.324Z,5.32
2023-09-15T00:59:01.707Z,4.75
2023-09-15T01:01:29.457Z,4.65
2023-09-15T01:03:56.924Z,4.47
2023-09-15T01:06:24.821Z,4.85
2023-09-15T01:08:52.105Z,4.57
2023-09-15T01:11:19.694Z,5.10
2023-09-15T01:13:48.233Z,4.05
2023-09-15T01:16:19.984Z,5.63
2023-09-15T01:18:53.790Z,4.20
2023-09-15T01:21:50.287Z,5.10
2023-09-15T01:25:07.626Z,4.15
2023-09-15T01:27:55.701Z,4.47
2023-09-15T01:30:25.693Z,4.75
2023-09-15T01:32:53.713Z,4.38
2023-09-15T01:35:21.370Z,4.78
2023-09-15T01:37:48.507Z,4.80
2023-09-15T01:40:15.739Z,4.80
2023-09-15T01:42:44.655Z,4.95
2023-09-15T01:45:11.836Z,5.03
2023-09-15T01:47:41.052Z,4.82
2023-09-15T01:50:09.970Z,4.47
2023-09-15T01:52:37.400Z,5.72
2023-09-15T01:55:07.293Z,4.78
2023-09-15T01:57:34.493Z,6.05
2023-09-15T02:00:01.641Z,5.70
2023-09-15T02:02:28.986Z,5.75
2023-09-15T02:04:57.777Z,6.10
2023-09-15T02:07:24.957Z,5.88
2023-09-15T02:09:52.164Z,6.03
2023-09-15T02:12:19.554Z,5.95
2023-09-15T02:14:46.708Z,5.57
2023-09-15T02:17:13.896Z,6.72
2023-09-15T02:19:41.053Z,5.90
2023-09-15T02:22:09.711Z,6.55
2023-09-15T02:24:36.881Z,5.97
2023-09-15T02:27:04.855Z,6.47
2023-09-15T02:29:32.036Z,6.68
2023-09-15T02:31:59.181Z,6.60
2023-09-15T02:34:26.379Z,7.90
2023-09-15T02:36:53.559Z,6.68
2023-09-15T02:39:22.067Z,7.32
2023-09-15T02:41:49.343Z,6.93
2023-09-15T02:44:16.480Z,7.20
2023-09-15T02:46:43.710Z,8.30
2023-09-15T02:49:11.009Z,7.35
2023-09-15T02:51:38.179Z,7.63
2023-09-15T02:54:05.645Z,7.82
2023-09-15T02:56:34.299Z,7.72
2023-09-15T02:59:01.448Z,7.72
2023-09-15T03:01:28.633Z,8.18
2023-09-15T03:03:56.102Z,8.48
2023-09-15T03:06:23.349Z,7.93
2023-09-15T03:08:50.800Z,7.90
2023-09-15T03:11:18.407Z,8.75
2023-09-15T03:13:47.170Z,9.75
2023-09-15T03:16:14.841Z,8.77
2023-09-15T03:18:42.100Z,10.13
2023-09-15T03:21:09.348Z,10.13
2023-09-15T03:23:36.634Z,10.63
2023-09-15T03:26:04.537Z,10.40
2023-09-15T03:28:33.703Z,10.65
2023-09-15T03:31:02.671Z,10.93
2023-09-15T03:33:29.965Z,10.80
2023-09-15T03:35:57.306Z,10.20
2023-09-15T03:38:24.696Z,10.18
2023-09-15T03:40:51.857Z,10.43
2023-09-15T03:43:19.007Z,9.93
2023-09-15T03:45:47.909Z,9.88
2023-09-15T03:48:16.617Z,9.82
2023-09-15T03:50:43.876Z,9.48
2023-09-15T03:53:12.150Z,8.75
2023-09-15T03:55:39.713Z,9.10
2023-09-15T03:58:06.959Z,8.23
2023-09-15T04:00:34.216Z,8.02
2023-09-15T04:03:01.589Z,7.25
2023-09-15T04:05:30.270Z,7.85
2023-09-15T04:07:57.477Z,7.95
2023-09-15T04:10:24.718Z,7.35
2023-09-15T04:12:51.950Z,6.88
2023-09-15T04:15:19.080Z,6.70
2023-09-15T04:17:46.602Z,6.35
2023-09-15T04:20:14.398Z,7.03
2023-09-15T04:22:42.952Z,6.80
2023-09-15T04:25:11.235Z,6.38
2023-09-15T04:27:38.478Z,6.03
2023-09-15T04:30:07.170Z,5.30
2023-09-15T04:32:34.459Z,5.53
2023-09-15T04:35:01.880Z,5.22
2023-09-15T04:37:29.024Z,5.45
2023-09-15T04:39:57.527Z,6.03
2023-09-15T04:42:24.705Z,6.00
2023-09-15T04:44:51.919Z,5.80
2023-09-15T04:47:31.618Z,4.88
2023-09-15T04:49:59.078Z,5.32
2023-09-15T04:52:26.321Z,5.97
2023-09-15T04:54:54.105Z,5.15
2023-09-15T04:57:23.088Z,4.90
2023-09-15T04:59:50.338Z,5.47
2023-09-15T05:02:17.478Z,5.18
2023-09-15T05:04:44.687Z,5.32
2023-09-15T05:07:11.973Z,5.60
2023-09-15T05:09:39.152Z,4.70
2023-09-15T05:12:07.109Z,5.07
2023-09-15T05:14:35.623Z,4.97
2023-09-15T05:17:02.804Z,5.38
2023-09-15T05:19:30.067Z,5.38
2023-09-15T05:21:57.261Z,6.13
2023-09-15T05:24:24.458Z,5.78
2023-09-15T05:26:51.582Z,6.35
2023-09-15T05:29:18.713Z,5.93
2023-09-15T05:31:47.304Z,6.78
2023-09-15T05:34:14.594Z,6.15
2023-09-15T05:36:41.821Z,6.32
2023-09-15T05:39:08.974Z,7.70
2023-09-15T05:41:36.152Z,7.57
2023-09-15T05:44:03.259Z,7.63
2023-09-15T05:46:30.547Z,6.22
2023-09-15T05:48:59.140Z,8.25
2023-09-15T05:51:26.388Z,7.70
2023-09-15T05:53:53.519Z,7.68
2023-09-15T05:56:20.671Z,8.35
2023-09-15T05:58:48.021Z,8.05
2023-09-15T06:01:15.806Z,8.32
2023-09-15T06:03:43.014Z,8.55
2023-09-15T06:06:11.541Z,8.02
2023-09-15T06:08:38.842Z,8.00
2023-09-15T06:11:05.960Z,7.47
2023-09-15T06:13:33.732Z,8.48
2023-09-15T06:16:00.988Z,9.43
2023-09-15T06:18:28.124Z,8.55
2023-09-15T06:20:55.273Z,7.90
2023-09-15T06:23:23.903Z,8.38
2023-09-15T06:25:51.163Z,8.35
2023-09-15T06:28:22.124Z,8.45
2023-09-15T06:30:49.862Z,8.50
2023-09-15T06:33:17.018Z,7.00
2023-09-15T06:35:44.246Z,7.78
2023-09-15T06:38:11.989Z,7.15
2023-09-15T06:40:40.573Z,6.97
2023-09-15T06:43:07.789Z,7.53
2023-09-15T06:45:35.283Z,6.75
2023-09-15T06:48:02.956Z,6.38
2023-09-15T06:50:30.385Z,7.28
2023-09-15T06:52:57.795Z,6.32
2023-09-15T06:55:25.003Z,6.70
2023-09-15T06:57:53.602Z,5.70
2023-09-15T07:00:21.119Z,5.47
2023-09-15T07:02:48.275Z,5.90
2023-09-15T07:05:15.537Z,5.50
2023-09-15T07:07:42.672Z,5.70
2023-09-15T07:10:10.513Z,5.15
2023-09-15T07:12:38.702Z,5.30
2023-09-15T07:15:08.419Z,4.80
2023-09-15T07:17:35.616Z,4.85
2023-09-15T07:20:02.864Z,4.90
2023-09-15T07:22:30.071Z,5.18
2023-09-15T07:24:57.228Z,5.13
2023-09-15T07:27:24.864Z,4.50
2023-09-15T07:29:52.069Z,4.10
2023-09-15T07:32:20.625Z,3.83
2023-09-15T07:34:47.784Z,4.68
2023-09-15T07:37:15.037Z,4.15
2023-09-15T07:39:42.515Z,3.85
2023-09-15T07:42:09.691Z,3.75
2023-09-15T07:44:37.754Z,4.10
2023-09-15T07:47:05.795Z,4.00
2023-09-15T07:49:34.532Z,3.92
2023-09-15T07:52:01.805Z,4.30
2023-09-15T07:54:28.977Z,4.32
2023-09-15T07:56:56.112Z,3.42
2023-09-15T07:59:23.330Z,3.40
2023-09-15T08:01:50.638Z,4.05
2023-09-15T08:04:17.905Z,3.42
2023-09-15T08:06:46.505Z,3.38
2023-09-15T08:09:13.624Z,3.53
2023-09-15T08:11:40.805Z,4.32
2023-09-15T08:14:07.978Z,4.30
2023-09-15T08:16:35.497Z,3.30
2023-09-15T08:19:02.877Z,3.80
2023-09-15T08:21:30.198Z,3.90
2023-09-15T08:23:58.829Z,3.78
2023-09-15T08:26:35.947Z,3.42
2023-09-15T08:29:11.439Z,3.50
2023-09-15T08:31:38.716Z,3.65
2023-09-15T08:34:06.004Z,3.70
2023-09-15T08:36:33.158Z,3.47
2023-09-15T08:39:01.701Z,3.88
2023-09-15T08:41:31.801Z,3.92
2023-09-15T08:43:59.471Z,4.22
2023-09-15T08:46:27.107Z,3.50
2023-09-15T08:48:58.983Z,3.63
2023-09-15T08:51:27.157Z,3.03
2023-09-15T08:53:55.936Z,4.05
2023-09-15T08:56:24.567Z,3.47
2023-09-15T08:58:52.371Z,3.55
2023-09-15T09:01:20.288Z,3.47
2023-09-15T09:03:48.190Z,3.38
2023-09-15T09:06:17.449Z,3.92
2023-09-15T09:08:48.746Z,3.85
2023-09-15T09:11:16.125Z,4.13
2023-09-15T09:13:51.243Z,3.70
2023-09-15T09:16:18.849Z,4.50
2023-09-15T09:18:56.191Z,4.18
2023-09-15T09:21:25.893Z,4.25
2023-09-15T09:23:53.366Z,3.90
2023-09-15T09:26:20.519Z,3.63
2023-09-15T09:28:49.650Z,3.40
2023-09-15T09:31:17.455Z,3.78
2023-09-15T09:33:44.850Z,4.05
2023-09-15T09:36:15.944Z,3.28
2023-09-15T09:41:14.627Z,2.88
2023-09-15T09:43:44.907Z,3.80
2023-09-15T09:46:13.706Z,3.33
2023-09-15T09:48:42.767Z,3.78
2023-09-15T09:51:10.092Z,3.50
2023-09-15T09:53:37.392Z,3.55
2023-09-15T09:56:06.052Z,3.72
2023-09-15T09:58:33.740Z,2.97
2023-09-15T10:01:00.929Z,2.90
2023-09-15T10:03:29.558Z,3.08
2023-09-15T10:05:57.331Z,3.45
2023-09-15T10:08:24.889Z,3.65
2023-09-15T10:10:52.018Z,3.90
2023-09-15T10:13:19.948Z,3.55
2023-09-15T10:15:47.563Z,3.63
2023-09-15T10:18:17.129Z,3.20
2023-09-15T10:20:48.718Z,3.22
2023-09-15T10:23:16.334Z,3.83
2023-09-15T10:25:45.151Z,3.35
2023-09-15T10:28:19.871Z,3.25
2023-09-15T10:30:55.855Z,3.60
2023-09-15T10:33:23.605Z,4.00
2023-09-15T10:35:53.202Z,3.22
2023-09-15T10:38:30.290Z,3.65
2023-09-15T10:40:57.512Z,3.08
2023-09-15T10:43:27.082Z,3.42
2023-09-15T10:45:56.198Z,3.33
2023-09-15T10:48:23.766Z,3.30
2023-09-15T10:50:52.407Z,2.90
2023-09-15T10:53:19.852Z,2.75
2023-09-15T10:55:47.062Z,3.13
2023-09-15T10:58:15.880Z,3.08
2023-09-15T11:00:43.349Z,3.08
2023-09-15T11:03:10.961Z,2.97
2023-09-15T11:05:38.691Z,3.00
2023-09-15T11:08:07.526Z,2.78
2023-09-15T11:10:40.082Z,3.13
2023-09-15T11:13:07.752Z,3.38
2023-09-15T11:15:34.909Z,2.88
2023-09-15T11:18:05.035Z,2.80
2023-09-15T11:20:32.198Z,3.00
2023-09-15T11:22:59.429Z,3.25
2023-09-15T11:25:27.949Z,3.17
2023-09-15T11:27:55.174Z,2.58
2023-09-15T11:30:26.464Z,2.78
2023-09-15T11:32:54.980Z,2.58
2023-09-15T11:35:24.830Z,2.58
2023-09-15T11:37:52.916Z,2.92
2023-09-15T11:40:23.805Z,3.40
2023-09-15T11:42:57.234Z,3.20
2023-09-15T11:45:28.108Z,2.70
2023-09-15T11:48:00.681Z,2.75
2023-09-15T11:50:29.610Z,2.95
2023-09-15T11:52:56.839Z,2.42
2023-09-15T11:55:25.391Z,2.90
2023-09-15T11:57:52.838Z,2.90
2023-09-15T12:00:23.371Z,2.53
2023-09-15T12:02:53.653Z,2.60
2023-09-15T12:05:22.487Z,2.50
2023-09-15T12:07:50.570Z,2.88
2023-09-15T12:10:19.877Z,2.80
2023-09-15T12:12:47.026Z,2.80
2023-09-15T12:15:16.126Z,2.67
2023-09-15T12:17:46.147Z,2.72
2023-09-15T12:20:13.896Z,2.60
2023-09-15T12:22:43.575Z,2.88
2023-09-15T12:25:11.793Z,2.83
2023-09-15T12:27:39.675Z,2.58
2023-09-15T12:30:08.905Z,2.95
2023-09-15T12:32:36.770Z,2.42
2023-09-15T12:35:10.121Z,2.60
2023-09-15T12:37:41.421Z,2.60
2023-09-15T12:40:09.372Z,2.55
2023-09-15T12:42:37.931Z,2.85
2023-09-15T12:45:06.829Z,2.45
2023-09-15T12:47:34.219Z,2.35
2023-09-15T12:50:01.678Z,2.00
2023-09-15T12:52:30.258Z,1.83
2023-09-15T12:54:57.480Z,2.35
2023-09-15T12:57:24.852Z,2.00
2023-09-15T12:59:52.000Z,2.13
2023-09-15T13:02:19.383Z,2.08
2023-09-15T13:04:46.771Z,2.10
2023-09-15T13:07:14.053Z,2.15
2023-09-15T13:09:42.891Z,1.98
2023-09-15T13:12:10.109Z,2.05
2023-09-15T13:14:37.314Z,2.25
2023-09-15T13:17:04.697Z,2.13
2023-09-15T13:19:31.950Z,2.13
2023-09-15T13:21:59.146Z,2.40
2023-09-15T13:24:26.410Z,2.28
2023-09-15T13:26:54.714Z,1.98
2023-09-15T13:29:21.844Z,2.08
2023-09-15T13:31:49.241Z,2.13
2023-09-15T13:34:16.460Z,1.95
2023-09-15T13:36:43.628Z,2.15
2023-09-15T13:39:10.849Z,2.13
2023-09-15T13:41:37.984Z,1.63
2023-09-15T13:44:06.540Z,2.22
2023-09-15T13:46:33.742Z,2.38
2023-09-15T13:49:01.012Z,2.05
2023-09-15T13:51:39.924Z,1.67
2023-09-15T13:54:09.232Z,1.92
2023-09-15T13:56:36.387Z,2.25
2023-09-15T13:59:03.565Z,2.08
2023-09-15T14:01:32.564Z,2.53
2023-09-15T14:03:59.904Z,2.05
2023-09-15T14:06:27.184Z,2.20
2023-09-15T14:08:54.519Z,2.20
2023-09-15T14:11:23.514Z,1.90
2023-09-15T14:13:50.656Z,2.33
2023-09-15T14:16:18.063Z,3.17
2023-09-15T14:18:46.775Z,4.70
2023-09-15T14:21:14.289Z,2.30
2023-09-15T14:23:41.388Z,2.45
2023-09-15T14:26:08.566Z,2.10
2023-09-15T14:28:35.698Z,2.00
2023-09-15T14:31:03.630Z,2.88
2023-09-15T14:33:30.851Z,2.05
2023-09-15T14:35:59.465Z,2.25
2023-09-15T14:38:26.604Z,2.50
2023-09-15T14:40:53.792Z,1.80
2023-09-15T14:43:21.352Z,1.98
2023-09-15T14:45:48.617Z,2.15
2023-09-15T14:48:15.858Z,2.17
2023-09-15T14:50:43.183Z,2.30
2023-09-15T14:53:11.723Z,2.13
2023-09-15T14:55:38.917Z,2.08
2023-09-15T14:58:06.112Z,2.33
2023-09-15T15:00:33.265Z,2.10
2023-09-15T15:03:00.616Z,2.00
2023-09-15T15:05:27.876Z,2.00
2023-09-15T15:07:55.062Z,1.80
2023-09-15T15:10:23.557Z,2.05
2023-09-15T15:12:50.798Z,2.40
2023-09-15T15:15:18.318Z,2.20
2023-09-15T15:17:45.872Z,2.00
2023-09-15T15:20:13.267Z,2.13
2023-09-15T15:22:40.421Z,2.30
2023-09-15T15:25:07.993Z,2.25
2023-09-15T15:27:36.542Z,3.05
2023-09-15T15:30:04.119Z,2.10
2023-09-15T15:32:31.294Z,2.38
2023-09-15T15:34:58.458Z,2.40
2023-09-15T15:37:25.642Z,2.20
2023-09-15T15:39:52.789Z,2.20
2023-09-15T15:42:19.968Z,2.70
2023-09-15T15:44:54.831Z,2.45
2023-09-15T15:47:21.974Z,2.30
2023-09-15T15:49:49.256Z,2.58
2023-09-15T15:52:16.390Z,2.28
2023-09-15T15:54:43.661Z,2.30
2023-09-15T15:57:10.881Z,2.42
2023-09-15T15:59:38.080Z,2.20
2023-09-15T16:02:07.025Z,2.40
2023-09-15T16:04:34.181Z,2.75
2023-09-15T16:07:01.309Z,2.45
2023-09-15T16:09:29.853Z,2.50
2023-09-15T16:11:56.995Z,3.33
2023-09-15T16:14:24.394Z,2.45
2023-09-15T16:16:51.595Z,2.50
2023-09-15T16:19:20.197Z,2.67
2023-09-15T16:21:47.474Z,2.63
2023-09-15T16:24:14.661Z,2.78
2023-09-15T16:26:41.864Z,2.38
2023-09-15T16:29:09.132Z,2.25
2023-09-15T16:31:36.433Z,2.60
2023-09-15T16:34:03.709Z,2.13
2023-09-15T16:36:32.299Z,2.58
2023-09-15T16:38:59.892Z,2.72
2023-09-15T16:41:27.013Z,2.50
2023-09-15T16:43:54.155Z,2.80
2023-09-15T16:46:21.334Z,2.88
2023-09-15T16:48:48.704Z,3.00
2023-09-15T16:51:16.308Z,2.53
2023-09-15T16:53:44.854Z,2.75
2023-09-15T16:56:12.006Z,3.13
2023-09-15T16:58:39.212Z,2.65
2023-09-15T17:01:06.803Z,2.70
2023-09-15T17:03:34.163Z,2.60
2023-09-15T17:06:01.739Z,2.95
2023-09-15T17:08:28.965Z,2.85
2023-09-15T17:11:00.740Z,2.63
2023-09-15T17:13:27.917Z,2.60
2023-09-15T17:15:55.119Z,2.97
2023-09-15T17:18:22.553Z,2.78
2023-09-15T17:20:49.943Z,3.35
2023-09-15T17:23:17.146Z,4.35
2023-09-15T17:25:45.029Z,4.53
2023-09-15T17:28:13.633Z,3.80
2023-09-15T17:30:40.868Z,3.17
2023-09-15T17:33:10.853Z,3.10
2023-09-15T17:35:38.836Z,3.67
2023-09-15T17:38:05.981Z,3.40
2023-09-15T17:40:34.484Z,2.85
2023-09-15T17:43:01.721Z,3.03
2023-09-15T17:45:30.693Z,2.70
2023-09-15T17:47:57.993Z,3.03
2023-09-15T17:50:25.454Z,3.03
2023-09-15T17:52:52.812Z,3.58
2023-09-15T17:55:20.176Z,2.53
2023-09-15T17:57:48.564Z,3.03
2023-09-15T18:00:16.876Z,2.58
2023-09-15T18:02:45.990Z,2.83
2023-09-15T18:05:13.204Z,3.00
2023-09-15T18:07:40.545Z,3.10
2023-09-15T18:10:09.038Z,2.45
2023-09-15T18:12:36.775Z,2.60
2023-09-15T18:15:05.012Z,2.72
2023-09-15T18:17:32.239Z,3.13
2023-09-15T18:20:00.886Z,3.35
2023-09-15T18:22:28.031Z,2.95
2023-09-15T18:24:55.221Z,3.47
2023-09-15T18:27:22.611Z,2.70
2023-09-15T18:29:49.745Z,3.05
2023-09-15T18:32:16.973Z,3.22
2023-09-15T18:34:44.131Z,3.20
2023-09-15T18:37:12.691Z,3.08
2023-09-15T18:39:39.963Z,3.42
2023-09-15T18:42:07.337Z,3.40
2023-09-15T18:44:34.532Z,2.75
2023-09-15T18:47:01.722Z,3.17
2023-09-15T18:49:28.893Z,3.10
2023-09-15T18:51:56.489Z,3.45
2023-09-15T18:54:25.070Z,3.10
2023-09-15T18:56:52.256Z,3.22
2023-09-15T18:59:20.655Z,3.50
2023-09-15T19:01:47.801Z,3.17
2023-09-15T19:04:15.239Z,3.08
2023-09-15T19:06:42.560Z,3.88
2023-09-15T19:09:09.759Z,3.20
2023-09-15T19:11:38.269Z,3.28
2023-09-15T19:14:05.534Z,3.63
2023-09-15T19:16:32.969Z,3.55
2023-09-15T19:19:00.184Z,4.05
2023-09-15T19:21:27.358Z,4.35
2023-09-15T19:23:54.761Z,4.53
2023-09-15T19:26:21.978Z,4.30
2023-09-15T19:28:50.802Z,4.22
2023-09-15T19:31:19.349Z,4.40
2023-09-15T19:33:47.365Z,4.20
2023-09-15T19:36:14.686Z,4.25
2023-09-15T19:38:41.844Z,4.55
2023-09-15T19:41:08.977Z,4.97
2023-09-15T19:43:36.558Z,4.75
2023-09-15T19:46:05.863Z,4.63
2023-09-15T19:48:33.044Z,4.85
2023-09-15T19:51:00.205Z,4.93
2023-09-15T19:53:27.369Z,4.53
2023-09-15T19:55:54.618Z,4.97
2023-09-15T19:58:21.822Z,5.28
2023-09-15T20:00:48.989Z,5.53
2023-09-15T20:03:17.706Z,5.38
2023-09-15T20:05:44.866Z,5.53
2023-09-15T20:08:12.047Z,6.03
2023-09-15T20:10:39.181Z,5.57
2023-09-15T20:13:06.386Z,5.05
2023-09-15T20:15:33.787Z,5.32
2023-09-15T20:18:01.420Z,5.10
2023-09-15T20:20:29.971Z,5.32
2023-09-15T20:22:57.327Z,5.25
2023-09-15T20:25:24.676Z,5.32
2023-09-15T20:27:51.836Z,6.13
2023-09-15T20:30:19.108Z,6.40
2023-09-15T20:32:46.239Z,5.60
2023-09-15T20:35:13.390Z,6.20
2023-09-15T20:37:42.106Z,6.25
2023-09-15T20:40:10.096Z,6.28
2023-09-15T20:42:37.262Z,5.72
2023-09-15T20:45:06.006Z,6.63
2023-09-15T20:47:33.303Z,6.03
2023-09-15T20:50:00.461Z,6.18
2023-09-15T20:52:27.624Z,6.07
2023-09-15T20:54:56.239Z,6.43
2023-09-15T20:57:23.449Z,6.45
2023-09-15T20:59:50.595Z,6.50
2023-09-15T21:02:17.792Z,6.57
2023-09-15T21:04:45.452Z,6.50
2023-09-15T21:07:12.854Z,6.80
2023-09-15T21:09:40.016Z,6.50
2023-09-15T21:12:09.088Z,7.38
2023-09-15T21:14:36.686Z,6.13
2023-09-15T21:17:04.486Z,7.07
2023-09-15T21:19:31.604Z,5.80
2023-09-15T21:21:58.753Z,6.32
2023-09-15T21:24:26.007Z,6.13
2023-09-15T21:26:53.198Z,6.03
2023-09-15T21:29:21.714Z,5.97
2023-09-15T21:31:48.887Z,5.95
2023-09-15T21:34:16.056Z,5.95
2023-09-15T21:36:43.285Z,6.28
2023-09-15T21:39:10.574Z,6.50
2023-09-15T21:41:37.921Z,6.22
2023-09-15T21:44:05.522Z,6.38
2023-09-15T21:46:34.100Z,5.82
2023-09-15T21:49:01.381Z,6.15
2023-09-15T21:51:28.679Z,6.47
2023-09-15T21:53:55.848Z,5.70
2023-09-15T21:56:22.960Z,6.00
2023-09-15T21:58:50.256Z,6.15
2023-09-15T22:01:17.626Z,6.50
2023-09-15T22:03:46.367Z,5.88
2023-09-15T22:06:13.619Z,6.50
2023-09-15T22:08:40.790Z,6.00
2023-09-15T22:11:08.555Z,6.57
2023-09-15T22:13:36.300Z,6.68
2023-09-15T22:16:03.520Z,6.10
2023-09-15T22:18:30.849Z,6.88
2023-09-15T22:21:02.255Z,6.47
2023-09-15T22:23:29.521Z,6.20
2023-09-15T22:25:56.678Z,7.00
2023-09-15T22:28:23.818Z,6.20
2023-09-15T22:30:51.011Z,6.80
2023-09-15T22:33:18.269Z,6.68
2023-09-15T22:35:45.528Z,6.60
2023-09-15T22:38:14.058Z,6.55
2023-09-15T22:40:42.303Z,6.78
2023-09-15T22:43:09.545Z,6.18
2023-09-15T22:45:36.835Z,6.43
2023-09-15T22:48:05.159Z,6.60
2023-09-15T22:50:32.584Z,6.80
2023-09-15T22:52:59.742Z,6.70
2023-09-15T22:55:28.314Z,6.82
2023-09-15T22:57:55.630Z,7.10
2023-09-15T23:00:22.839Z,7.00
2023-09-15T23:02:51.441Z,7.15
2023-09-15T23:05:19.071Z,7.13
2023-09-15T23:07:46.845Z,6.28
2023-09-15T23:10:14.132Z,7.00
2023-09-15T23:12:43.323Z,7.70
2023-09-15T23:15:11.425Z,6.57
2023-09-15T23:17:38.683Z,6.78
2023-09-15T23:20:08.027Z,6.60
2023-09-15T23:22:35.197Z,6.38
2023-09-15T23:25:02.610Z,6.45
2023-09-15T23:27:29.786Z,6.60
2023-09-15T23:29:58.292Z,6.25
2023-09-15T23:32:25.523Z,6.97
2023-09-15T23:34:52.973Z,6.32
2023-09-15T23:37:20.424Z,6.90
2023-09-15T23:39:47.634Z,6.90
2023-09-15T23:42:15.035Z,6.70
2023-09-15T23:44:42.183Z,7.03
2023-09-15T23:47:10.747Z,6.63
2023-09-15T23:49:37.913Z,7.03
2023-09-15T23:52:05.399Z,6.13
2023-09-15T23:54:32.610Z,6.32
2023-09-15T23:56:59.983Z,6.65
2023-09-15T23:59:27.311Z,6.45
